KTMK

Tillamook Airport

Tillamook, Oregon, USA
METAR KTMK 171655Z AUTO 03017G23KT 10SM CLR 11/00 A3017 RMK AO2
Observed Flight Rules
Nov-17 @ 16:55 UTC (27 minutes ago) Visual Flight Rules
Wind Visibility Clouds
30° at 17 knots
 Gusting to 23 knots
10 miles
  • Clear skies
Temperatures Readings
Current 11°C / 52°F
Dewpoint 0°C / 32°F
Humidity 47%
Altimeter 30.17" Hg
Pressure 1022 hPa
Elevation 11
METAR KTMK 171655Z AUTO 03017G23KT 10SM CLR 11/00 A3017 RMK AO2
Observed Flight Rules
Nov-17 @ 16:55 UTC
(27 minutes ago)
VFR
Wind Visibility
30° at 17 knots
 Gusting to 23 knots
10 miles
Clouds
  • Clear skies
Temperature Dewpoint
11°C / 52°F 0°C / 32°F
Humidity Altimeter Pressure
47% 30.17" Hg 1022 hPa